Time;durP1;ratioP1;P1;durP2;ratioP2;P2;SDS_P1;SDS_P2;PMS_P1;PMS_P2;Temp;Humidity;BMP_temperature;BMP_pressure;BME280_temperature;BME280_humidity;BME280_pressure;Samples;Min_cycle;Max_cycle;Signal;HPM_P1;HPM_P2
2022/12/20 00:01:37;;;;;;;32.30;16.40;;;;;;;-0.30;82.05;99428.55;420547;1300;98025;-40
2022/12/20 00:11:45;;;;;;;28.80;14.10;;;;;;;-0.37;82.11;99411.15;420691;1297;110983;-39
2022/12/20 00:21:52;;;;;;;28.40;13.60;;;;;;;-0.31;81.98;99407.85;420608;1289;107924;-40
2022/12/20 00:31:59;;;;;;;34.00;16.10;;;;;;;-0.28;82.31;99400.52;420510;1299;98119;-40
2022/12/20 00:42:07;;;;;;;25.30;12.90;;;;;;;-0.33;82.41;99395.19;420652;1299;108395;-40
2022/12/20 00:52:14;;;;;;;27.20;12.80;;;;;;;-0.27;82.43;99401.10;420511;1296;99249;-40
2022/12/20 01:02:21;;;;;;;36.60;16.50;;;;;;;-0.26;82.84;99407.39;420609;1289;112325;-41
2022/12/20 01:12:28;;;;;;;42.90;20.00;;;;;;;-0.32;83.27;99412.80;420669;1299;107503;-40
2022/12/20 01:22:36;;;;;;;27.50;13.50;;;;;;;-0.33;83.49;99398.70;420688;1299;99272;-39
2022/12/20 01:32:53;;;;;;;23.80;13.70;;;;;;;-0.25;83.83;99392.27;420652;1300;108286;-40
2022/12/20 01:43:00;;;;;;;39.90;19.00;;;;;;;-0.20;84.03;99365.63;420618;1292;99229;-40
2022/12/20 01:53:08;;;;;;;34.60;16.60;;;;;;;-0.23;84.19;99357.19;420802;1298;112064;-39
2022/12/20 02:03:16;;;;;;;26.70;12.50;;;;;;;-0.18;84.16;99346.02;420738;1292;106960;-40
2022/12/20 02:13:23;;;;;;;25.10;12.40;;;;;;;-0.05;84.26;99349.41;420689;1292;99242;-40
2022/12/20 02:34:13;;;;;;;32.50;16.60;;;;;;;-0.04;84.24;99328.16;421819;1267;108171;-40
2022/12/20 02:54:50;;;;;;;29.00;14.60;;;;;;;-0.04;83.90;99314.67;420808;1287;111663;-40
2022/12/20 03:04:56;;;;;;;31.80;15.50;;;;;;;-0.15;83.94;99307.23;420840;1298;107863;-42
2022/12/20 03:15:04;;;;;;;25.30;12.40;;;;;;;-0.21;83.60;99294.13;420810;1300;97990;-40
2022/12/20 03:25:10;;;;;;;30.00;15.80;;;;;;;-0.20;83.45;99291.28;421014;1295;108300;-40
2022/12/20 03:35:18;;;;;;;35.10;15.70;;;;;;;-0.24;83.56;99294.30;420845;1299;98853;-41
2022/12/20 03:45:25;;;;;;;28.70;13.40;;;;;;;-0.27;83.34;99289.52;420906;1295;112297;-40
2022/12/20 03:55:32;;;;;;;30.50;15.00;;;;;;;-0.20;83.08;99279.55;420940;1295;108120;-40
2022/12/20 04:05:39;;;;;;;35.30;16.30;;;;;;;-0.19;82.99;99268.36;420915;1298;117489;-40
2022/12/20 04:15:46;;;;;;;27.10;14.20;;;;;;;-0.23;82.94;99264.86;420788;1288;107222;-39
2022/12/20 04:25:54;;;;;;;28.80;14.40;;;;;;;-0.21;82.76;99245.47;420813;1290;98094;-40
2022/12/20 04:36:04;;;;;;;30.50;15.90;;;;;;;-0.20;82.86;99238.42;420920;1298;111783;-39
2022/12/20 04:46:11;;;;;;;31.40;14.70;;;;;;;-0.26;82.80;99233.59;420813;1299;109206;-39
2022/12/20 04:56:17;;;;;;;25.40;13.50;;;;;;;-0.21;82.73;99244.98;420837;1297;99220;-40
2022/12/20 05:06:24;;;;;;;41.40;18.50;;;;;;;-0.21;82.86;99238.86;420867;1298;109288;-39
2022/12/20 05:16:31;;;;;;;36.30;15.20;;;;;;;-0.29;82.86;99239.98;420840;1291;98841;-40
2022/12/20 05:26:39;;;;;;;30.30;14.50;;;;;;;-0.26;82.46;99230.20;420856;1298;111072;-41
2022/12/20 05:36:46;;;;;;;39.30;19.00;;;;;;;-0.26;82.65;99231.33;422179;1287;108394;-40
2022/12/20 05:46:53;;;;;;;37.00;16.60;;;;;;;-0.34;82.71;99232.83;420776;1297;99230;-39
2022/12/20 05:57:00;;;;;;;33.70;16.20;;;;;;;-0.33;82.85;99238.95;420723;1295;108213;-41
2022/12/20 06:07:08;;;;;;;37.90;18.10;;;;;;;-0.32;82.92;99232.79;420698;1281;99514;-40
2022/12/20 06:17:15;;;;;;;44.90;19.50;;;;;;;-0.39;83.05;99219.11;420868;1298;112193;-41
2022/12/20 06:27:22;;;;;;;28.40;15.20;;;;;;;-0.38;82.90;99221.75;420869;1298;108237;-40
2022/12/20 06:37:30;;;;;;;39.50;19.10;;;;;;;-0.31;82.87;99215.88;420837;1291;99217;-39
2022/12/20 06:47:38;;;;;;;48.10;20.10;;;;;;;-0.30;83.24;99224.00;420936;1289;108310;-41
2022/12/20 06:57:45;;;;;;;36.10;17.30;;;;;;;-0.31;83.01;99214.55;420987;1291;99233;-39
2022/12/20 07:07:53;;;;;;;31.50;14.80;;;;;;;-0.16;83.02;99232.71;420919;1294;111806;-39
2022/12/20 07:18:00;;;;;;;45.20;20.40;;;;;;;-0.08;83.11;99249.88;420858;1291;108557;-41
2022/12/20 07:28:06;;;;;;;45.80;19.70;;;;;;;-0.02;83.02;99240.18;420869;1299;98956;-39
2022/12/20 07:38:14;;;;;;;28.40;13.90;;;;;;;0.14;82.84;99229.59;420817;1290;112364;-39
2022/12/20 07:48:22;;;;;;;39.70;19.50;;;;;;;0.27;82.80;99209.11;420842;1292;108225;-39
2022/12/20 07:58:31;;;;;;;42.30;20.70;;;;;;;0.27;82.81;99197.83;420877;1292;98294;-39
2022/12/20 08:08:42;;;;;;;28.50;15.70;;;;;;;0.37;82.77;99199.81;420855;1298;112488;-41
2022/12/20 08:18:50;;;;;;;43.40;19.80;;;;;;;0.51;82.78;99207.70;420924;1291;107690;-40
2022/12/20 08:28:57;;;;;;;43.50;20.00;;;;;;;0.56;82.73;99220.45;420959;1298;99220;-40
2022/12/20 08:39:02;;;;;;;28.70;15.30;;;;;;;0.66;82.36;99236.30;420933;1291;109072;-40
2022/12/20 08:49:10;;;;;;;45.20;21.70;;;;;;;0.75;82.36;99227.04;421051;1294;99225;-40
2022/12/20 08:59:17;;;;;;;49.50;22.20;;;;;;;0.79;82.21;99220.79;420942;1298;111111;-40
2022/12/20 09:09:24;;;;;;;43.40;21.60;;;;;;;0.85;82.13;99220.36;420861;1292;107385;-40
2022/12/20 09:19:30;;;;;;;29.00;16.20;;;;;;;1.01;82.00;99212.33;420911;1291;99259;-39
2022/12/20 09:29:38;;;;;;;43.70;21.30;;;;;;;1.20;81.77;99204.10;420909;1296;108947;-40
2022/12/20 09:39:48;;;;;;;43.10;20.00;;;;;;;1.31;81.69;99192.91;420950;1298;98828;-39
2022/12/20 09:49:52;;;;;;;;;;;;;;;1.43;81.58;99203.86;420973;1298;111381;-40
2022/12/20 10:00:00;;;;;;;33.60;17.30;;;;;;;1.58;81.26;99208.54;420959;1298;107842;-39
2022/12/20 10:10:41;;;;;;;38.40;20.50;;;;;;;1.72;81.18;99191.28;420881;1298;99236;-40
2022/12/20 10:20:50;;;;;;;39.90;19.20;;;;;;;1.74;80.90;99167.60;420975;1295;109000;-40
2022/12/20 10:31:04;;;;;;;40.50;20.50;;;;;;;1.75;80.78;99149.93;420913;1289;99379;-40
2022/12/20 10:41:15;;;;;;;30.10;15.70;;;;;;;1.88;80.55;99135.96;421835;1291;111940;-40
2022/12/20 10:51:28;;;;;;;37.10;19.20;;;;;;;1.99;80.60;99128.71;422467;1288;109515;-40
2022/12/20 11:01:36;;;;;;;44.60;21.30;;;;;;;2.06;80.57;99119.57;421022;1298;98366;-40
2022/12/20 11:11:57;;;;;;;30.20;18.60;;;;;;;2.05;80.10;99106.56;421038;1298;110988;-39
2022/12/20 11:22:03;;;;;;;32.10;17.70;;;;;;;2.14;79.96;99113.15;420885;1298;108875;-39
2022/12/20 11:32:20;;;;;;;43.50;22.10;;;;;;;2.55;79.77;99079.14;421008;1282;99147;-41
2022/12/20 11:42:25;;;;;;;35.10;19.40;;;;;;;2.53;79.45;99080.02;420958;1298;110120;-41
2022/12/20 11:52:30;;;;;;;43.80;22.10;;;;;;;2.44;79.50;99094.56;420982;1291;99644;-39
2022/12/20 12:02:40;;;;;;;29.80;15.20;;;;;;;2.33;79.28;99083.73;420972;1291;97958;-40
2022/12/20 12:12:57;;;;;;;44.00;22.00;;;;;;;2.25;79.39;99080.14;421035;1292;111454;-39
2022/12/20 12:23:08;;;;;;;48.80;22.80;;;;;;;2.13;79.50;99060.08;421011;1291;107662;-41
2022/12/20 12:43:50;;;;;;;35.40;18.30;;;;;;;2.07;79.18;99064.11;421020;1290;111349;-40
2022/12/20 12:54:03;;;;;;;49.10;23.40;;;;;;;2.05;79.34;99060.56;420952;1298;108413;-39
2022/12/20 13:04:21;;;;;;;41.90;21.60;;;;;;;1.99;79.33;99051.08;421076;1294;99255;-39
2022/12/20 13:24:55;;;;;;;31.40;15.40;;;;;;;1.91;79.23;99054.35;420795;1291;107890;-41
2022/12/20 13:35:03;;;;;;;38.70;19.90;;;;;;;1.96;79.37;99056.86;420932;1298;99220;-40
2022/12/20 13:45:09;;;;;;;42.60;21.90;;;;;;;1.87;79.55;99062.49;420793;1298;108875;-40
2022/12/20 13:55:30;;;;;;;56.40;25.40;;;;;;;1.74;79.72;99063.64;420993;1295;99220;-40
2022/12/20 14:05:38;;;;;;;34.30;18.60;;;;;;;1.64;79.62;99064.42;420882;1290;111390;-40
2022/12/20 14:25:52;;;;;;;46.10;24.60;;;;;;;1.51;79.95;99059.71;420970;1298;99041;-40
2022/12/20 14:36:07;;;;;;;53.20;24.80;;;;;;;1.37;80.06;99057.46;420508;1298;370273;-40
2022/12/20 14:56:27;;;;;;;42.50;20.00;;;;;;;1.26;80.15;99033.72;420862;1291;111315;-40
2022/12/20 15:06:39;;;;;;;;;;;;;;;1.23;80.37;99022.21;420871;1292;108384;-40
2022/12/20 15:16:48;;;;;;;43.80;22.30;;;;;;;1.15;80.35;99009.81;420962;1298;99230;-44
2022/12/20 15:26:56;;;;;;;33.40;17.90;;;;;;;1.14;80.34;99006.63;420770;1298;110693;-40
2022/12/20 15:47:10;;;;;;;56.00;25.00;;;;;;;1.17;80.50;98989.96;420900;1298;99174;-40
2022/12/20 15:57:19;;;;;;;47.70;23.80;;;;;;;1.09;80.55;98983.35;420986;1295;113230;-39
2022/12/20 16:07:26;;;;;;;42.70;17.40;;;;;;;1.09;80.59;98981.23;420855;1292;108093;-39
2022/12/20 16:17:34;;;;;;;48.20;22.50;;;;;;;1.19;80.62;98984.86;420887;1295;99149;-39
2022/12/20 16:27:41;;;;;;;50.70;25.00;;;;;;;1.19;80.67;98976.21;420967;1298;112127;-40
2022/12/20 16:37:49;;;;;;;37.70;20.00;;;;;;;1.14;80.50;98970.09;420870;1295;108400;-40
2022/12/20 16:47:56;;;;;;;29.60;16.70;;;;;;;1.19;80.40;98959.34;420880;1291;99205;-39
2022/12/20 16:58:03;;;;;;;51.20;24.60;;;;;;;1.19;80.52;98942.57;420891;1295;110968;-40
2022/12/20 17:08:12;;;;;;;47.20;23.30;;;;;;;1.09;80.46;98936.34;420948;1292;107918;-39
2022/12/20 17:18:38;;;;;;;36.10;20.40;;;;;;;1.00;80.53;98945.97;420924;1295;99126;-39
2022/12/20 17:28:46;;;;;;;35.70;18.40;;;;;;;1.08;80.51;98963.13;420903;1298;111969;-39
2022/12/20 17:38:53;;;;;;;48.10;24.20;;;;;;;1.08;80.54;98955.64;420930;1298;106652;-40
2022/12/20 17:49:01;;;;;;;49.50;26.90;;;;;;;0.95;80.69;98939.39;420885;1298;99236;-39
2022/12/20 17:59:09;;;;;;;40.50;20.80;;;;;;;0.86;80.51;98930.77;420823;1297;111449;-40
2022/12/20 18:09:18;;;;;;;40.10;20.10;;;;;;;0.84;80.63;98930.55;420953;1292;108029;-42
2022/12/20 18:19:26;;;;;;;53.90;26.80;;;;;;;0.78;80.68;98923.25;420995;1298;99180;-40
2022/12/20 18:29:33;;;;;;;47.80;23.60;;;;;;;0.66;80.77;98903.38;422981;1298;112224;-38
2022/12/20 18:39:40;;;;;;;46.30;22.40;;;;;;;0.64;80.73;98911.77;422269;1287;108205;-40
2022/12/20 18:49:48;;;;;;;57.50;25.70;;;;;;;0.66;81.00;98923.18;422482;1291;98298;-39
2022/12/20 18:59:56;;;;;;;62.70;28.80;;;;;;;0.65;81.25;98909.42;421029;1292;111050;-39
2022/12/20 19:10:03;;;;;;;66.30;29.00;;;;;;;0.62;81.27;98903.11;420868;1294;109434;-40
2022/12/20 19:20:11;;;;;;;46.40;22.40;;;;;;;0.64;81.18;98898.71;420787;1292;99259;-39
2022/12/20 19:30:18;;;;;;;37.00;19.90;;;;;;;0.75;81.40;98887.73;420910;1295;106680;-40
2022/12/20 19:40:25;;;;;;;62.10;28.50;;;;;;;0.79;81.38;98890.68;420959;1299;99042;-40
2022/12/20 19:50:32;;;;;;;58.40;27.70;;;;;;;0.74;81.62;98875.29;420930;1298;112163;-40
2022/12/20 20:00:40;;;;;;;41.10;22.00;;;;;;;0.70;81.35;98859.01;420919;1288;107804;-40
2022/12/20 20:10:47;;;;;;;36.20;19.00;;;;;;;0.76;81.23;98854.11;420827;1294;99281;-40
2022/12/20 20:20:53;;;;;;;41.90;20.90;;;;;;;0.77;81.51;98838.33;420927;1295;108801;-39
2022/12/20 20:41:07;;;;;;;37.60;19.60;;;;;;;0.79;81.63;98839.70;420872;1292;111390;-40
2022/12/20 20:51:13;;;;;;;37.70;18.30;;;;;;;0.88;81.60;98831.79;420941;1294;107476;-39
2022/12/20 21:01:21;;;;;;;45.70;22.60;;;;;;;0.90;81.79;98821.07;421073;1300;99297;-39
2022/12/20 21:11:29;;;;;;;54.80;25.40;;;;;;;0.86;81.70;98820.33;420925;1295;106871;-40
2022/12/20 21:21:36;;;;;;;35.10;17.30;;;;;;;0.88;81.69;98794.61;420861;1288;98857;-41
2022/12/20 21:31:44;;;;;;;38.70;20.10;;;;;;;0.96;81.81;98774.42;420831;1295;110920;-40
2022/12/20 21:41:51;;;;;;;47.00;22.50;;;;;;;0.96;81.86;98748.36;420779;1295;108655;-40
2022/12/20 21:52:07;;;;;;;36.90;19.60;;;;;;;0.93;81.84;98745.63;420909;1288;98337;-39
2022/12/20 22:02:14;;;;;;;37.60;18.40;;;;;;;1.03;81.69;98745.11;420908;1300;110156;-40
2022/12/20 22:12:21;;;;;;;51.50;22.80;;;;;;;1.13;81.83;98725.61;420854;1292;99256;-40
2022/12/20 22:22:28;;;;;;;50.00;22.50;;;;;;;1.12;81.75;98711.29;420943;1303;111583;-40
2022/12/20 22:32:35;;;;;;;34.10;17.90;;;;;;;1.14;81.67;98700.11;420857;1299;107653;-40
2022/12/20 22:52:48;;;;;;;40.60;21.60;;;;;;;1.23;81.77;98674.88;420941;1299;113106;-40
2022/12/20 23:02:55;;;;;;;36.40;17.30;;;;;;;1.24;81.63;98674.94;420794;1295;108622;-40
2022/12/20 23:23:28;;;;;;;43.00;21.20;;;;;;;1.22;81.51;98604.13;420857;1298;106752;-40
2022/12/20 23:33:36;;;;;;;45.60;21.80;;;;;;;1.10;81.49;98638.97;420833;1298;98092;-40
2022/12/20 23:43:43;;;;;;;33.70;17.60;;;;;;;1.06;81.44;98673.59;420801;1291;111578;-41
2022/12/20 23:53:51;;;;;;;43.50;20.20;;;;;;;1.07;81.50;98639.31;420709;1292;107336;-40
